sensor_id;sensor_type;location;lat;lon;timestamp;pressure;altitude;pressure_sealevel;temperature
15062;BMP180;7630;50.306;8.566;2023-04-23T00:01:06;97101.00;;;16.70
15062;BMP180;7630;50.306;8.566;2023-04-23T00:05:09;97107.00;;;17.00
15062;BMP180;7630;50.306;8.566;2023-04-23T00:09:13;97103.00;;;16.80
15062;BMP180;7630;50.306;8.566;2023-04-23T00:13:15;97110.00;;;17.00
15062;BMP180;7630;50.306;8.566;2023-04-23T00:17:17;97103.00;;;16.70
15062;BMP180;7630;50.306;8.566;2023-04-23T00:21:18;97104.00;;;16.40
15062;BMP180;7630;50.306;8.566;2023-04-23T00:25:19;97102.00;;;16.20
15062;BMP180;7630;50.306;8.566;2023-04-23T00:29:20;97099.00;;;16.40
15062;BMP180;7630;50.306;8.566;2023-04-23T00:33:21;97102.00;;;16.20
15062;BMP180;7630;50.306;8.566;2023-04-23T00:37:22;97103.00;;;16.60
15062;BMP180;7630;50.306;8.566;2023-04-23T00:41:24;97099.00;;;16.40
15062;BMP180;7630;50.306;8.566;2023-04-23T00:45:27;97102.00;;;16.10
15062;BMP180;7630;50.306;8.566;2023-04-23T00:49:28;97103.00;;;16.50
15062;BMP180;7630;50.306;8.566;2023-04-23T00:53:32;97104.00;;;16.80
15062;BMP180;7630;50.306;8.566;2023-04-23T00:57:35;97106.00;;;16.80
15062;BMP180;7630;50.306;8.566;2023-04-23T01:01:37;97102.00;;;16.60
15062;BMP180;7630;50.306;8.566;2023-04-23T01:05:40;97106.00;;;16.10
15062;BMP180;7630;50.306;8.566;2023-04-23T01:09:42;97112.00;;;15.40
15062;BMP180;7630;50.306;8.566;2023-04-23T01:13:44;97106.00;;;14.20
15062;BMP180;7630;50.306;8.566;2023-04-23T01:17:45;97109.00;;;14.60
15062;BMP180;7630;50.306;8.566;2023-04-23T01:21:48;97112.00;;;13.30
15062;BMP180;7630;50.306;8.566;2023-04-23T01:25:49;97111.00;;;14.00
15062;BMP180;7630;50.306;8.566;2023-04-23T01:29:50;97117.00;;;14.20
15062;BMP180;7630;50.306;8.566;2023-04-23T01:33:53;97120.00;;;14.10
15062;BMP180;7630;50.306;8.566;2023-04-23T01:37:56;96900.00;;;13.20
15062;BMP180;7630;50.306;8.566;2023-04-23T01:41:58;97107.00;;;13.60
15062;BMP180;7630;50.306;8.566;2023-04-23T01:46:01;97109.00;;;13.70
15062;BMP180;7630;50.306;8.566;2023-04-23T01:50:03;97111.00;;;14.00
15062;BMP180;7630;50.306;8.566;2023-04-23T01:54:05;97103.00;;;14.40
15062;BMP180;7630;50.306;8.566;2023-04-23T02:02:05;97113.00;;;14.90
15062;BMP180;7630;50.306;8.566;2023-04-23T02:06:08;97092.00;;;15.20
15062;BMP180;7630;50.306;8.566;2023-04-23T02:10:10;97119.00;;;15.30
15062;BMP180;7630;50.306;8.566;2023-04-23T02:14:11;97123.00;;;14.50
15062;BMP180;7630;50.306;8.566;2023-04-23T02:18:12;97123.00;;;15.10
15062;BMP180;7630;50.306;8.566;2023-04-23T02:22:13;97114.00;;;15.30
15062;BMP180;7630;50.306;8.566;2023-04-23T02:26:15;97139.00;;;14.90
15062;BMP180;7630;50.306;8.566;2023-04-23T02:30:16;97129.00;;;14.90
15062;BMP180;7630;50.306;8.566;2023-04-23T02:34:17;97120.00;;;14.40
15062;BMP180;7630;50.306;8.566;2023-04-23T02:38:18;97117.00;;;14.90
15062;BMP180;7630;50.306;8.566;2023-04-23T02:42:19;97129.00;;;14.60
15062;BMP180;7630;50.306;8.566;2023-04-23T02:46:21;97126.00;;;14.30
15062;BMP180;7630;50.306;8.566;2023-04-23T02:50:22;97116.00;;;14.70
15062;BMP180;7630;50.306;8.566;2023-04-23T02:54:23;97123.00;;;14.70
15062;BMP180;7630;50.306;8.566;2023-04-23T02:58:26;97120.00;;;14.90
15062;BMP180;7630;50.306;8.566;2023-04-23T03:02:27;97127.00;;;14.90
15062;BMP180;7630;50.306;8.566;2023-04-23T03:06:29;97125.00;;;14.80
15062;BMP180;7630;50.306;8.566;2023-04-23T03:10:31;97127.00;;;14.80
15062;BMP180;7630;50.306;8.566;2023-04-23T03:14:32;97127.00;;;14.80
15062;BMP180;7630;50.306;8.566;2023-04-23T03:18:34;97125.00;;;14.90
15062;BMP180;7630;50.306;8.566;2023-04-23T03:22:35;97131.00;;;15.10
15062;BMP180;7630;50.306;8.566;2023-04-23T03:26:36;97138.00;;;15.10
15062;BMP180;7630;50.306;8.566;2023-04-23T03:30:37;97126.00;;;15.00
15062;BMP180;7630;50.306;8.566;2023-04-23T03:34:39;97125.00;;;15.40
15062;BMP180;7630;50.306;8.566;2023-04-23T03:38:40;97123.00;;;15.30
15062;BMP180;7630;50.306;8.566;2023-04-23T03:42:41;97122.00;;;15.20
15062;BMP180;7630;50.306;8.566;2023-04-23T03:46:42;97127.00;;;15.00
15062;BMP180;7630;50.306;8.566;2023-04-23T03:50:44;97122.00;;;15.20
15062;BMP180;7630;50.306;8.566;2023-04-23T03:54:45;97132.00;;;14.70
15062;BMP180;7630;50.306;8.566;2023-04-23T03:58:46;97130.00;;;15.10
15062;BMP180;7630;50.306;8.566;2023-04-23T04:02:47;97129.00;;;14.80
15062;BMP180;7630;50.306;8.566;2023-04-23T04:06:48;97136.00;;;15.20
15062;BMP180;7630;50.306;8.566;2023-04-23T04:10:49;97139.00;;;15.00
15062;BMP180;7630;50.306;8.566;2023-04-23T04:14:51;97138.00;;;15.40
15062;BMP180;7630;50.306;8.566;2023-04-23T04:18:52;97143.00;;;15.50
15062;BMP180;7630;50.306;8.566;2023-04-23T04:22:55;97139.00;;;15.00
15062;BMP180;7630;50.306;8.566;2023-04-23T04:26:58;97156.00;;;14.90
15062;BMP180;7630;50.306;8.566;2023-04-23T04:31:03;97146.00;;;14.40
15062;BMP180;7630;50.306;8.566;2023-04-23T04:35:06;97147.00;;;14.10
15062;BMP180;7630;50.306;8.566;2023-04-23T04:39:08;97151.00;;;13.50
15062;BMP180;7630;50.306;8.566;2023-04-23T04:43:10;97158.00;;;14.50
15062;BMP180;7630;50.306;8.566;2023-04-23T04:47:11;97154.00;;;14.70
15062;BMP180;7630;50.306;8.566;2023-04-23T04:51:13;97147.00;;;12.80
15062;BMP180;7630;50.306;8.566;2023-04-23T04:55:15;97147.00;;;13.80
15062;BMP180;7630;50.306;8.566;2023-04-23T04:59:16;97164.00;;;14.80
15062;BMP180;7630;50.306;8.566;2023-04-23T05:03:18;97151.00;;;15.30
15062;BMP180;7630;50.306;8.566;2023-04-23T05:07:19;97158.00;;;14.30
15062;BMP180;7630;50.306;8.566;2023-04-23T05:11:20;97151.00;;;15.20
15062;BMP180;7630;50.306;8.566;2023-04-23T05:15:21;97139.00;;;15.00
15062;BMP180;7630;50.306;8.566;2023-04-23T05:19:22;97152.00;;;15.10
15062;BMP180;7630;50.306;8.566;2023-04-23T05:23:24;97141.00;;;15.50
15062;BMP180;7630;50.306;8.566;2023-04-23T05:27:25;97140.00;;;15.40
15062;BMP180;7630;50.306;8.566;2023-04-23T05:31:26;97131.00;;;15.90
15062;BMP180;7630;50.306;8.566;2023-04-23T05:35:29;97145.00;;;16.10
15062;BMP180;7630;50.306;8.566;2023-04-23T05:39:31;97154.00;;;15.90
15062;BMP180;7630;50.306;8.566;2023-04-23T05:43:33;97146.00;;;16.30
15062;BMP180;7630;50.306;8.566;2023-04-23T05:47:34;97146.00;;;16.60
15062;BMP180;7630;50.306;8.566;2023-04-23T05:51:35;97165.00;;;16.00
15062;BMP180;7630;50.306;8.566;2023-04-23T05:55:36;97160.00;;;16.20
15062;BMP180;7630;50.306;8.566;2023-04-23T05:59:37;97164.00;;;15.80
15062;BMP180;7630;50.306;8.566;2023-04-23T06:03:39;97159.00;;;15.90
15062;BMP180;7630;50.306;8.566;2023-04-23T06:07:42;97165.00;;;16.10
15062;BMP180;7630;50.306;8.566;2023-04-23T06:11:44;97168.00;;;16.30
15062;BMP180;7630;50.306;8.566;2023-04-23T06:15:45;97176.00;;;16.40
15062;BMP180;7630;50.306;8.566;2023-04-23T06:19:46;97169.00;;;17.10
15062;BMP180;7630;50.306;8.566;2023-04-23T06:23:47;97159.00;;;15.40
15062;BMP180;7630;50.306;8.566;2023-04-23T06:27:48;97152.00;;;15.90
15062;BMP180;7630;50.306;8.566;2023-04-23T06:31:49;97145.00;;;16.20
15062;BMP180;7630;50.306;8.566;2023-04-23T06:35:50;97152.00;;;16.80
15062;BMP180;7630;50.306;8.566;2023-04-23T06:39:52;97148.00;;;17.30
15062;BMP180;7630;50.306;8.566;2023-04-23T06:43:53;97154.00;;;16.70
15062;BMP180;7630;50.306;8.566;2023-04-23T06:47:54;97159.00;;;16.90
15062;BMP180;7630;50.306;8.566;2023-04-23T06:51:55;97154.00;;;17.70
15062;BMP180;7630;50.306;8.566;2023-04-23T06:55:58;97156.00;;;18.30
15062;BMP180;7630;50.306;8.566;2023-04-23T06:59:59;97161.00;;;18.60
15062;BMP180;7630;50.306;8.566;2023-04-23T07:04:01;97149.00;;;18.10
15062;BMP180;7630;50.306;8.566;2023-04-23T07:08:02;97143.00;;;18.20
15062;BMP180;7630;50.306;8.566;2023-04-23T07:12:03;97144.00;;;19.00
15062;BMP180;7630;50.306;8.566;2023-04-23T07:16:04;97153.00;;;18.80
15062;BMP180;7630;50.306;8.566;2023-04-23T07:20:06;97140.00;;;20.00
15062;BMP180;7630;50.306;8.566;2023-04-23T07:24:07;97126.00;;;20.10
15062;BMP180;7630;50.306;8.566;2023-04-23T07:28:09;97121.00;;;20.20
15062;BMP180;7630;50.306;8.566;2023-04-23T07:32:10;97127.00;;;19.50
15062;BMP180;7630;50.306;8.566;2023-04-23T07:36:11;97123.00;;;20.30
15062;BMP180;7630;50.306;8.566;2023-04-23T07:40:12;97110.00;;;19.80
15062;BMP180;7630;50.306;8.566;2023-04-23T07:44:13;97118.00;;;20.10
15062;BMP180;7630;50.306;8.566;2023-04-23T07:48:15;97127.00;;;19.80
15062;BMP180;7630;50.306;8.566;2023-04-23T07:52:16;97134.00;;;20.00
15062;BMP180;7630;50.306;8.566;2023-04-23T07:56:17;97133.00;;;20.30
15062;BMP180;7630;50.306;8.566;2023-04-23T08:00:19;97125.00;;;19.70
15062;BMP180;7630;50.306;8.566;2023-04-23T08:04:20;97118.00;;;20.00
15062;BMP180;7630;50.306;8.566;2023-04-23T08:08:22;97116.00;;;19.30
15062;BMP180;7630;50.306;8.566;2023-04-23T08:12:23;97113.00;;;19.40
15062;BMP180;7630;50.306;8.566;2023-04-23T08:16:24;97111.00;;;18.50
15062;BMP180;7630;50.306;8.566;2023-04-23T08:20:25;97108.00;;;18.60
15062;BMP180;7630;50.306;8.566;2023-04-23T08:24:26;97022.00;;;19.00
15062;BMP180;7630;50.306;8.566;2023-04-23T08:28:28;97102.00;;;19.20
15062;BMP180;7630;50.306;8.566;2023-04-23T08:32:29;97111.00;;;19.10
15062;BMP180;7630;50.306;8.566;2023-04-23T08:36:31;97107.00;;;19.10
15062;BMP180;7630;50.306;8.566;2023-04-23T08:40:35;97111.00;;;19.00
15062;BMP180;7630;50.306;8.566;2023-04-23T08:44:39;97117.00;;;18.10
15062;BMP180;7630;50.306;8.566;2023-04-23T08:48:43;97116.00;;;17.60
15062;BMP180;7630;50.306;8.566;2023-04-23T08:52:56;97116.00;;;18.30
15062;BMP180;7630;50.306;8.566;2023-04-23T08:56:59;97134.00;;;19.00
15062;BMP180;7630;50.306;8.566;2023-04-23T09:01:02;97130.00;;;18.50
15062;BMP180;7630;50.306;8.566;2023-04-23T09:05:04;97133.00;;;17.10
15062;BMP180;7630;50.306;8.566;2023-04-23T09:09:07;97130.00;;;17.20
15062;BMP180;7630;50.306;8.566;2023-04-23T09:13:11;97129.00;;;16.70
15062;BMP180;7630;50.306;8.566;2023-04-23T09:17:12;97126.00;;;16.60
15062;BMP180;7630;50.306;8.566;2023-04-23T09:21:13;97112.00;;;16.70
15062;BMP180;7630;50.306;8.566;2023-04-23T09:25:16;97109.00;;;16.60
15062;BMP180;7630;50.306;8.566;2023-04-23T09:29:20;97112.00;;;18.10
15062;BMP180;7630;50.306;8.566;2023-04-23T09:33:23;97101.00;;;19.80
15062;BMP180;7630;50.306;8.566;2023-04-23T09:37:24;97091.00;;;18.80
15062;BMP180;7630;50.306;8.566;2023-04-23T09:41:27;97085.00;;;19.10
15062;BMP180;7630;50.306;8.566;2023-04-23T09:45:28;97074.00;;;19.00
15062;BMP180;7630;50.306;8.566;2023-04-23T09:49:30;97079.00;;;19.70
15062;BMP180;7630;50.306;8.566;2023-04-23T09:53:40;97079.00;;;18.80
15062;BMP180;7630;50.306;8.566;2023-04-23T09:57:43;97076.00;;;19.00
15062;BMP180;7630;50.306;8.566;2023-04-23T10:01:44;97075.00;;;19.60
15062;BMP180;7630;50.306;8.566;2023-04-23T10:05:45;97072.00;;;19.70
15062;BMP180;7630;50.306;8.566;2023-04-23T10:09:49;97066.00;;;19.40
15062;BMP180;7630;50.306;8.566;2023-04-23T10:13:52;97064.00;;;20.00
15062;BMP180;7630;50.306;8.566;2023-04-23T10:17:55;97065.00;;;20.10
15062;BMP180;7630;50.306;8.566;2023-04-23T10:21:58;97062.00;;;19.20
15062;BMP180;7630;50.306;8.566;2023-04-23T10:26:03;97057.00;;;19.10
15062;BMP180;7630;50.306;8.566;2023-04-23T10:30:07;97054.00;;;20.00
15062;BMP180;7630;50.306;8.566;2023-04-23T10:34:09;97056.00;;;20.10
15062;BMP180;7630;50.306;8.566;2023-04-23T10:38:11;97045.00;;;20.60
15062;BMP180;7630;50.306;8.566;2023-04-23T10:42:12;97042.00;;;20.90
15062;BMP180;7630;50.306;8.566;2023-04-23T10:46:30;97038.00;;;21.00
15062;BMP180;7630;50.306;8.566;2023-04-23T10:50:36;97037.00;;;20.80
15062;BMP180;7630;50.306;8.566;2023-04-23T10:54:40;97039.00;;;20.60
15062;BMP180;7630;50.306;8.566;2023-04-23T10:59:01;97039.00;;;19.70
15062;BMP180;7630;50.306;8.566;2023-04-23T11:03:02;97040.00;;;19.40
15062;BMP180;7630;50.306;8.566;2023-04-23T11:07:08;97034.00;;;18.40
15062;BMP180;7630;50.306;8.566;2023-04-23T11:11:10;97046.00;;;18.60
15062;BMP180;7630;50.306;8.566;2023-04-23T11:15:16;97050.00;;;19.20
15062;BMP180;7630;50.306;8.566;2023-04-23T11:19:18;97046.00;;;18.30
15062;BMP180;7630;50.306;8.566;2023-04-23T11:23:28;97052.00;;;17.60
15062;BMP180;7630;50.306;8.566;2023-04-23T11:27:31;97039.00;;;16.80
15062;BMP180;7630;50.306;8.566;2023-04-23T11:31:33;97034.00;;;17.20
15062;BMP180;7630;50.306;8.566;2023-04-23T11:35:34;97030.00;;;17.20
15062;BMP180;7630;50.306;8.566;2023-04-23T11:39:41;97021.00;;;18.00
15062;BMP180;7630;50.306;8.566;2023-04-23T11:43:44;97013.00;;;18.70
15062;BMP180;7630;50.306;8.566;2023-04-23T11:47:47;97000.00;;;19.00
15062;BMP180;7630;50.306;8.566;2023-04-23T11:51:48;96989.00;;;18.90
15062;BMP180;7630;50.306;8.566;2023-04-23T11:55:52;96991.00;;;18.10
15062;BMP180;7630;50.306;8.566;2023-04-23T11:59:54;96985.00;;;16.90
15062;BMP180;7630;50.306;8.566;2023-04-23T12:03:55;96986.00;;;17.70
15062;BMP180;7630;50.306;8.566;2023-04-23T12:08:10;96983.00;;;17.90
15062;BMP180;7630;50.306;8.566;2023-04-23T12:12:14;96974.00;;;18.00
15062;BMP180;7630;50.306;8.566;2023-04-23T12:16:15;96976.00;;;18.50
15062;BMP180;7630;50.306;8.566;2023-04-23T12:20:19;96965.00;;;17.90
15062;BMP180;7630;50.306;8.566;2023-04-23T12:24:29;96964.00;;;17.90
15062;BMP180;7630;50.306;8.566;2023-04-23T12:28:27;96972.00;;;17.60
15062;BMP180;7630;50.306;8.566;2023-04-23T12:32:28;96966.00;;;18.40
15062;BMP180;7630;50.306;8.566;2023-04-23T12:36:30;96959.00;;;19.40
15062;BMP180;7630;50.306;8.566;2023-04-23T12:40:32;96957.00;;;22.40
15062;BMP180;7630;50.306;8.566;2023-04-23T12:44:36;96958.00;;;23.60
15062;BMP180;7630;50.306;8.566;2023-04-23T12:48:37;96958.00;;;23.70
15062;BMP180;7630;50.306;8.566;2023-04-23T12:52:38;96954.00;;;24.60
15062;BMP180;7630;50.306;8.566;2023-04-23T12:56:40;96937.00;;;23.50
15062;BMP180;7630;50.306;8.566;2023-04-23T13:00:41;96930.00;;;23.70
15062;BMP180;7630;50.306;8.566;2023-04-23T13:04:43;96912.00;;;21.90
15062;BMP180;7630;50.306;8.566;2023-04-23T13:08:44;96911.00;;;22.70
15062;BMP180;7630;50.306;8.566;2023-04-23T13:12:45;96906.00;;;22.30
15062;BMP180;7630;50.306;8.566;2023-04-23T13:16:46;96889.00;;;22.10
15062;BMP180;7630;50.306;8.566;2023-04-23T13:20:47;96880.00;;;22.00
15062;BMP180;7630;50.306;8.566;2023-04-23T13:24:48;96881.00;;;21.90
15062;BMP180;7630;50.306;8.566;2023-04-23T13:28:49;96877.00;;;21.70
15062;BMP180;7630;50.306;8.566;2023-04-23T13:32:51;96876.00;;;20.90
15062;BMP180;7630;50.306;8.566;2023-04-23T13:36:54;96867.00;;;20.40
15062;BMP180;7630;50.306;8.566;2023-04-23T13:40:55;96853.00;;;20.30
15062;BMP180;7630;50.306;8.566;2023-04-23T13:44:56;96859.00;;;20.70
15062;BMP180;7630;50.306;8.566;2023-04-23T13:48:58;96849.00;;;20.30
15062;BMP180;7630;50.306;8.566;2023-04-23T13:53:00;96857.00;;;20.00
15062;BMP180;7630;50.306;8.566;2023-04-23T13:57:01;96848.00;;;20.90
15062;BMP180;7630;50.306;8.566;2023-04-23T14:01:03;96843.00;;;21.00
15062;BMP180;7630;50.306;8.566;2023-04-23T14:05:05;96834.00;;;20.80
15062;BMP180;7630;50.306;8.566;2023-04-23T14:09:09;96834.00;;;20.50
15062;BMP180;7630;50.306;8.566;2023-04-23T14:13:10;96819.00;;;21.30
15062;BMP180;7630;50.306;8.566;2023-04-23T14:17:12;96828.00;;;22.30
15062;BMP180;7630;50.306;8.566;2023-04-23T14:21:13;96818.00;;;22.20
15062;BMP180;7630;50.306;8.566;2023-04-23T14:25:33;96797.00;;;23.00
15062;BMP180;7630;50.306;8.566;2023-04-23T14:29:50;96616.00;;;23.20
15062;BMP180;7630;50.306;8.566;2023-04-23T14:33:51;96772.00;;;22.00
15062;BMP180;7630;50.306;8.566;2023-04-23T14:37:53;96778.00;;;21.50
15062;BMP180;7630;50.306;8.566;2023-04-23T14:41:55;96768.00;;;20.20
15062;BMP180;7630;50.306;8.566;2023-04-23T14:45:56;96758.00;;;19.90
15062;BMP180;7630;50.306;8.566;2023-04-23T14:49:57;96753.00;;;21.70
15062;BMP180;7630;50.306;8.566;2023-04-23T14:54:00;96740.00;;;22.40
15062;BMP180;7630;50.306;8.566;2023-04-23T14:58:01;96731.00;;;21.90
15062;BMP180;7630;50.306;8.566;2023-04-23T15:02:02;96728.00;;;22.50
15062;BMP180;7630;50.306;8.566;2023-04-23T15:06:05;96735.00;;;22.00
15062;BMP180;7630;50.306;8.566;2023-04-23T15:10:08;96720.00;;;21.00
15062;BMP180;7630;50.306;8.566;2023-04-23T15:14:23;96732.00;;;21.70
15062;BMP180;7630;50.306;8.566;2023-04-23T15:18:22;96718.00;;;22.00
15062;BMP180;7630;50.306;8.566;2023-04-23T15:22:23;96714.00;;;21.10
15062;BMP180;7630;50.306;8.566;2023-04-23T15:26:25;96715.00;;;21.00
15062;BMP180;7630;50.306;8.566;2023-04-23T15:30:26;96715.00;;;20.30
15062;BMP180;7630;50.306;8.566;2023-04-23T15:34:28;96708.00;;;20.30
15062;BMP180;7630;50.306;8.566;2023-04-23T15:38:29;96697.00;;;20.10
15062;BMP180;7630;50.306;8.566;2023-04-23T15:42:31;96698.00;;;19.50
15062;BMP180;7630;50.306;8.566;2023-04-23T15:46:32;96695.00;;;19.30
15062;BMP180;7630;50.306;8.566;2023-04-23T15:50:34;96684.00;;;20.10
15062;BMP180;7630;50.306;8.566;2023-04-23T15:54:35;96681.00;;;19.70
15062;BMP180;7630;50.306;8.566;2023-04-23T15:58:37;96682.00;;;20.90
15062;BMP180;7630;50.306;8.566;2023-04-23T16:02:38;96668.00;;;20.70
15062;BMP180;7630;50.306;8.566;2023-04-23T16:06:40;96670.00;;;20.90
15062;BMP180;7630;50.306;8.566;2023-04-23T16:10:42;96639.00;;;20.40
15062;BMP180;7630;50.306;8.566;2023-04-23T16:14:43;96660.00;;;20.10
15062;BMP180;7630;50.306;8.566;2023-04-23T16:18:44;96664.00;;;20.20
15062;BMP180;7630;50.306;8.566;2023-04-23T16:22:45;96658.00;;;19.50
15062;BMP180;7630;50.306;8.566;2023-04-23T16:26:46;96659.00;;;18.90
15062;BMP180;7630;50.306;8.566;2023-04-23T16:30:47;96663.00;;;19.80
15062;BMP180;7630;50.306;8.566;2023-04-23T16:34:48;96665.00;;;19.40
15062;BMP180;7630;50.306;8.566;2023-04-23T16:38:50;96662.00;;;19.00
15062;BMP180;7630;50.306;8.566;2023-04-23T16:45:53;96693.00;;;16.60
15062;BMP180;7630;50.306;8.566;2023-04-23T16:49:54;96727.00;;;14.90
15062;BMP180;7630;50.306;8.566;2023-04-23T16:53:55;96731.00;;;15.00
15062;BMP180;7630;50.306;8.566;2023-04-23T16:57:56;96731.00;;;13.90
15062;BMP180;7630;50.306;8.566;2023-04-23T17:01:58;96733.00;;;13.60
15062;BMP180;7630;50.306;8.566;2023-04-23T17:06:10;96742.00;;;13.30
15062;BMP180;7630;50.306;8.566;2023-04-23T17:10:12;96716.00;;;13.30
15062;BMP180;7630;50.306;8.566;2023-04-23T17:14:15;96722.00;;;13.30
15062;BMP180;7630;50.306;8.566;2023-04-23T17:18:16;96691.00;;;14.80
15062;BMP180;7630;50.306;8.566;2023-04-23T17:22:17;96676.00;;;15.70
15062;BMP180;7630;50.306;8.566;2023-04-23T17:26:18;96675.00;;;16.00
15062;BMP180;7630;50.306;8.566;2023-04-23T17:30:19;96674.00;;;16.20
15062;BMP180;7630;50.306;8.566;2023-04-23T17:34:20;96667.00;;;16.20
15062;BMP180;7630;50.306;8.566;2023-04-23T17:38:22;96655.00;;;15.90
15062;BMP180;7630;50.306;8.566;2023-04-23T17:42:24;96651.00;;;16.20
15062;BMP180;7630;50.306;8.566;2023-04-23T17:46:25;96653.00;;;16.30
15062;BMP180;7630;50.306;8.566;2023-04-23T17:50:27;96653.00;;;16.10
15062;BMP180;7630;50.306;8.566;2023-04-23T17:54:28;96660.00;;;16.30
15062;BMP180;7630;50.306;8.566;2023-04-23T17:58:29;96661.00;;;15.90
15062;BMP180;7630;50.306;8.566;2023-04-23T18:02:30;96651.00;;;14.50
15062;BMP180;7630;50.306;8.566;2023-04-23T18:06:31;96629.00;;;14.10
15062;BMP180;7630;50.306;8.566;2023-04-23T18:10:33;96628.00;;;14.10
15062;BMP180;7630;50.306;8.566;2023-04-23T18:14:35;96647.00;;;13.70
15062;BMP180;7630;50.306;8.566;2023-04-23T18:18:36;96641.00;;;13.50
15062;BMP180;7630;50.306;8.566;2023-04-23T18:22:38;96649.00;;;13.10
15062;BMP180;7630;50.306;8.566;2023-04-23T18:26:41;96641.00;;;14.00
15062;BMP180;7630;50.306;8.566;2023-04-23T18:30:42;96639.00;;;13.60
15062;BMP180;7630;50.306;8.566;2023-04-23T18:34:43;96652.00;;;14.00
15062;BMP180;7630;50.306;8.566;2023-04-23T18:38:45;96648.00;;;13.90
15062;BMP180;7630;50.306;8.566;2023-04-23T18:42:46;96640.00;;;13.80
15062;BMP180;7630;50.306;8.566;2023-04-23T18:46:48;96632.00;;;14.00
15062;BMP180;7630;50.306;8.566;2023-04-23T18:50:49;96640.00;;;14.40
15062;BMP180;7630;50.306;8.566;2023-04-23T18:54:50;96644.00;;;14.00
15062;BMP180;7630;50.306;8.566;2023-04-23T18:58:52;96640.00;;;14.40
15062;BMP180;7630;50.306;8.566;2023-04-23T19:02:55;96522.00;;;13.70
15062;BMP180;7630;50.306;8.566;2023-04-23T19:06:56;96671.00;;;13.60
15062;BMP180;7630;50.306;8.566;2023-04-23T19:10:58;96678.00;;;13.50
15062;BMP180;7630;50.306;8.566;2023-04-23T19:14:59;96674.00;;;13.80
15062;BMP180;7630;50.306;8.566;2023-04-23T19:19:01;96671.00;;;14.10
15062;BMP180;7630;50.306;8.566;2023-04-23T19:23:03;96673.00;;;14.70
15062;BMP180;7630;50.306;8.566;2023-04-23T19:27:04;96660.00;;;14.50
15062;BMP180;7630;50.306;8.566;2023-04-23T19:31:07;96665.00;;;14.70
15062;BMP180;7630;50.306;8.566;2023-04-23T19:35:10;96682.00;;;14.30
15062;BMP180;7630;50.306;8.566;2023-04-23T19:39:12;96671.00;;;14.20
15062;BMP180;7630;50.306;8.566;2023-04-23T19:43:13;96674.00;;;14.40
15062;BMP180;7630;50.306;8.566;2023-04-23T19:47:16;96673.00;;;14.60
15062;BMP180;7630;50.306;8.566;2023-04-23T19:51:18;96670.00;;;14.50
15062;BMP180;7630;50.306;8.566;2023-04-23T19:55:22;96665.00;;;14.10
15062;BMP180;7630;50.306;8.566;2023-04-23T19:59:25;96672.00;;;14.00
15062;BMP180;7630;50.306;8.566;2023-04-23T20:03:27;96661.00;;;13.70
15062;BMP180;7630;50.306;8.566;2023-04-23T20:07:29;96663.00;;;13.70
15062;BMP180;7630;50.306;8.566;2023-04-23T20:11:31;96661.00;;;14.10
15062;BMP180;7630;50.306;8.566;2023-04-23T20:15:32;96669.00;;;13.50
15062;BMP180;7630;50.306;8.566;2023-04-23T20:19:33;96676.00;;;14.30
15062;BMP180;7630;50.306;8.566;2023-04-23T20:23:34;96674.00;;;14.10
15062;BMP180;7630;50.306;8.566;2023-04-23T20:27:36;96659.00;;;14.30
15062;BMP180;7630;50.306;8.566;2023-04-23T20:31:37;96672.00;;;14.30
15062;BMP180;7630;50.306;8.566;2023-04-23T20:35:39;96667.00;;;14.50
15062;BMP180;7630;50.306;8.566;2023-04-23T20:39:41;96652.00;;;14.20
15062;BMP180;7630;50.306;8.566;2023-04-23T20:43:43;96663.00;;;14.70
15062;BMP180;7630;50.306;8.566;2023-04-23T20:47:45;96652.00;;;14.70
15062;BMP180;7630;50.306;8.566;2023-04-23T20:51:47;96649.00;;;13.80
15062;BMP180;7630;50.306;8.566;2023-04-23T20:55:48;96638.00;;;14.70
15062;BMP180;7630;50.306;8.566;2023-04-23T20:59:49;96649.00;;;14.80
15062;BMP180;7630;50.306;8.566;2023-04-23T21:03:50;96648.00;;;15.00
15062;BMP180;7630;50.306;8.566;2023-04-23T21:07:53;96654.00;;;15.00
15062;BMP180;7630;50.306;8.566;2023-04-23T21:11:55;96647.00;;;14.00
15062;BMP180;7630;50.306;8.566;2023-04-23T21:15:56;96647.00;;;14.00
15062;BMP180;7630;50.306;8.566;2023-04-23T21:19:59;96657.00;;;14.40
15062;BMP180;7630;50.306;8.566;2023-04-23T21:24:00;96646.00;;;14.20
15062;BMP180;7630;50.306;8.566;2023-04-23T21:28:01;96655.00;;;13.40
15062;BMP180;7630;50.306;8.566;2023-04-23T21:32:03;96655.00;;;13.90
15062;BMP180;7630;50.306;8.566;2023-04-23T21:36:05;96657.00;;;14.00
15062;BMP180;7630;50.306;8.566;2023-04-23T21:40:07;96650.00;;;13.70
15062;BMP180;7630;50.306;8.566;2023-04-23T21:44:10;96656.00;;;13.50
15062;BMP180;7630;50.306;8.566;2023-04-23T21:48:13;96663.00;;;13.60
15062;BMP180;7630;50.306;8.566;2023-04-23T21:52:14;96659.00;;;13.60
15062;BMP180;7630;50.306;8.566;2023-04-23T21:56:17;96666.00;;;13.30
15062;BMP180;7630;50.306;8.566;2023-04-23T22:00:19;96665.00;;;13.60
15062;BMP180;7630;50.306;8.566;2023-04-23T22:04:20;96666.00;;;13.80
15062;BMP180;7630;50.306;8.566;2023-04-23T22:08:23;96671.00;;;14.10
15062;BMP180;7630;50.306;8.566;2023-04-23T22:12:24;96669.00;;;14.30
15062;BMP180;7630;50.306;8.566;2023-04-23T22:16:26;96662.00;;;13.90
15062;BMP180;7630;50.306;8.566;2023-04-23T22:20:29;96668.00;;;13.90
15062;BMP180;7630;50.306;8.566;2023-04-23T22:24:31;96675.00;;;13.40
15062;BMP180;7630;50.306;8.566;2023-04-23T22:28:32;96669.00;;;13.90
15062;BMP180;7630;50.306;8.566;2023-04-23T22:32:35;96665.00;;;13.50
15062;BMP180;7630;50.306;8.566;2023-04-23T22:36:36;96661.00;;;13.90
15062;BMP180;7630;50.306;8.566;2023-04-23T22:40:37;96665.00;;;13.50
15062;BMP180;7630;50.306;8.566;2023-04-23T22:44:39;96654.00;;;13.70
15062;BMP180;7630;50.306;8.566;2023-04-23T22:48:40;96631.00;;;13.60
15062;BMP180;7630;50.306;8.566;2023-04-23T22:52:44;96635.00;;;13.20
15062;BMP180;7630;50.306;8.566;2023-04-23T22:56:45;96641.00;;;13.10
15062;BMP180;7630;50.306;8.566;2023-04-23T23:00:46;96638.00;;;13.50
15062;BMP180;7630;50.306;8.566;2023-04-23T23:04:47;96636.00;;;12.90
15062;BMP180;7630;50.306;8.566;2023-04-23T23:08:49;96634.00;;;13.00
15062;BMP180;7630;50.306;8.566;2023-04-23T23:12:50;96637.00;;;12.60
15062;BMP180;7630;50.306;8.566;2023-04-23T23:16:52;96632.00;;;12.60
15062;BMP180;7630;50.306;8.566;2023-04-23T23:20:56;96620.00;;;12.20
15062;BMP180;7630;50.306;8.566;2023-04-23T23:24:57;96635.00;;;12.20
15062;BMP180;7630;50.306;8.566;2023-04-23T23:28:59;96616.00;;;12.90
15062;BMP180;7630;50.306;8.566;2023-04-23T23:33:00;96618.00;;;12.40
15062;BMP180;7630;50.306;8.566;2023-04-23T23:37:01;96616.00;;;12.30
15062;BMP180;7630;50.306;8.566;2023-04-23T23:41:02;96625.00;;;12.20